sensor_id;sensor_type;location;lat;lon;timestamp;P1;durP1;ratioP1;P2;durP2;ratioP2
70549;SDS011;58101;48.658;2.328;2024-02-26T00:01:38;11.23;;;2.60;;
70549;SDS011;58101;48.658;2.328;2024-02-26T00:04:04;8.07;;;2.63;;
70549;SDS011;58101;48.658;2.328;2024-02-26T00:06:30;8.55;;;2.38;;
70549;SDS011;58101;48.658;2.328;2024-02-26T00:08:56;9.25;;;2.30;;
70549;SDS011;58101;48.658;2.328;2024-02-26T00:11:21;9.77;;;1.98;;
70549;SDS011;58101;48.658;2.328;2024-02-26T00:13:47;9.73;;;1.90;;
70549;SDS011;58101;48.658;2.328;2024-02-26T00:16:13;10.73;;;2.75;;
70549;SDS011;58101;48.658;2.328;2024-02-26T00:18:39;8.38;;;2.10;;
70549;SDS011;58101;48.658;2.328;2024-02-26T00:21:04;10.35;;;1.98;;
70549;SDS011;58101;48.658;2.328;2024-02-26T00:23:30;10.52;;;2.03;;
70549;SDS011;58101;48.658;2.328;2024-02-26T00:25:55;10.23;;;2.13;;
70549;SDS011;58101;48.658;2.328;2024-02-26T00:28:21;8.13;;;2.25;;
70549;SDS011;58101;48.658;2.328;2024-02-26T00:30:47;10.20;;;2.17;;
70549;SDS011;58101;48.658;2.328;2024-02-26T00:33:14;8.05;;;2.00;;
70549;SDS011;58101;48.658;2.328;2024-02-26T00:35:42;8.60;;;2.05;;
70549;SDS011;58101;48.658;2.328;2024-02-26T00:38:07;9.38;;;1.90;;
70549;SDS011;58101;48.658;2.328;2024-02-26T00:40:33;8.38;;;2.10;;
70549;SDS011;58101;48.658;2.328;2024-02-26T00:42:59;12.35;;;2.13;;
70549;SDS011;58101;48.658;2.328;2024-02-26T00:45:25;10.07;;;2.30;;
70549;SDS011;58101;48.658;2.328;2024-02-26T00:47:50;9.68;;;2.10;;
70549;SDS011;58101;48.658;2.328;2024-02-26T00:50:16;11.35;;;1.75;;
70549;SDS011;58101;48.658;2.328;2024-02-26T00:52:42;12.77;;;1.98;;
70549;SDS011;58101;48.658;2.328;2024-02-26T00:55:08;9.98;;;2.00;;
70549;SDS011;58101;48.658;2.328;2024-02-26T00:57:33;11.18;;;2.00;;
70549;SDS011;58101;48.658;2.328;2024-02-26T00:59:59;14.02;;;2.22;;
70549;SDS011;58101;48.658;2.328;2024-02-26T01:02:25;9.10;;;1.80;;
70549;SDS011;58101;48.658;2.328;2024-02-26T01:04:51;12.15;;;1.90;;
70549;SDS011;58101;48.658;2.328;2024-02-26T01:07:17;13.23;;;1.80;;
70549;SDS011;58101;48.658;2.328;2024-02-26T01:09:42;12.88;;;1.80;;
70549;SDS011;58101;48.658;2.328;2024-02-26T01:12:08;15.10;;;1.65;;
70549;SDS011;58101;48.658;2.328;2024-02-26T01:14:34;16.13;;;1.98;;
70549;SDS011;58101;48.658;2.328;2024-02-26T01:16:59;10.80;;;1.83;;
70549;SDS011;58101;48.658;2.328;2024-02-26T01:19:25;11.93;;;1.77;;
70549;SDS011;58101;48.658;2.328;2024-02-26T01:21:50;13.50;;;2.05;;
70549;SDS011;58101;48.658;2.328;2024-02-26T01:24:16;11.20;;;1.67;;
70549;SDS011;58101;48.658;2.328;2024-02-26T01:26:42;13.32;;;1.73;;
70549;SDS011;58101;48.658;2.328;2024-02-26T01:29:08;14.05;;;2.22;;
70549;SDS011;58101;48.658;2.328;2024-02-26T01:31:33;12.23;;;1.80;;
70549;SDS011;58101;48.658;2.328;2024-02-26T01:34:00;13.88;;;1.77;;
70549;SDS011;58101;48.658;2.328;2024-02-26T01:36:26;13.02;;;1.98;;
70549;SDS011;58101;48.658;2.328;2024-02-26T01:38:52;13.68;;;2.13;;
70549;SDS011;58101;48.658;2.328;2024-02-26T01:41:17;11.30;;;2.58;;
70549;SDS011;58101;48.658;2.328;2024-02-26T01:43:43;10.15;;;1.55;;
70549;SDS011;58101;48.658;2.328;2024-02-26T01:46:10;12.95;;;2.00;;
70549;SDS011;58101;48.658;2.328;2024-02-26T01:48:41;13.23;;;1.88;;
70549;SDS011;58101;48.658;2.328;2024-02-26T01:51:07;14.73;;;2.28;;
70549;SDS011;58101;48.658;2.328;2024-02-26T01:53:34;13.65;;;2.03;;
70549;SDS011;58101;48.658;2.328;2024-02-26T01:56:00;13.93;;;2.10;;
70549;SDS011;58101;48.658;2.328;2024-02-26T01:58:26;15.57;;;2.03;;
70549;SDS011;58101;48.658;2.328;2024-02-26T02:00:52;10.80;;;1.75;;
70549;SDS011;58101;48.658;2.328;2024-02-26T02:03:18;12.38;;;2.00;;
70549;SDS011;58101;48.658;2.328;2024-02-26T02:05:44;13.85;;;1.75;;
70549;SDS011;58101;48.658;2.328;2024-02-26T02:08:13;11.30;;;1.67;;
70549;SDS011;58101;48.658;2.328;2024-02-26T02:10:39;16.02;;;1.88;;
70549;SDS011;58101;48.658;2.328;2024-02-26T02:13:06;11.90;;;1.80;;
70549;SDS011;58101;48.658;2.328;2024-02-26T02:15:32;15.43;;;2.08;;
70549;SDS011;58101;48.658;2.328;2024-02-26T02:17:58;14.07;;;1.80;;
70549;SDS011;58101;48.658;2.328;2024-02-26T02:20:24;9.75;;;1.73;;
70549;SDS011;58101;48.658;2.328;2024-02-26T02:22:56;12.88;;;2.22;;
70549;SDS011;58101;48.658;2.328;2024-02-26T02:25:21;12.38;;;1.90;;
70549;SDS011;58101;48.658;2.328;2024-02-26T02:27:47;12.10;;;1.95;;
70549;SDS011;58101;48.658;2.328;2024-02-26T02:30:13;14.93;;;1.63;;
70549;SDS011;58101;48.658;2.328;2024-02-26T02:35:08;12.35;;;1.80;;
70549;SDS011;58101;48.658;2.328;2024-02-26T02:37:34;14.52;;;1.58;;
70549;SDS011;58101;48.658;2.328;2024-02-26T02:40:00;15.95;;;2.10;;
70549;SDS011;58101;48.658;2.328;2024-02-26T02:42:26;12.82;;;1.60;;
70549;SDS011;58101;48.658;2.328;2024-02-26T02:44:51;12.00;;;1.40;;
70549;SDS011;58101;48.658;2.328;2024-02-26T02:47:17;12.32;;;1.75;;
70549;SDS011;58101;48.658;2.328;2024-02-26T02:49:43;14.75;;;2.28;;
70549;SDS011;58101;48.658;2.328;2024-02-26T02:52:08;13.88;;;2.30;;
70549;SDS011;58101;48.658;2.328;2024-02-26T02:54:34;15.65;;;2.15;;
70549;SDS011;58101;48.658;2.328;2024-02-26T02:57:00;11.98;;;2.35;;
70549;SDS011;58101;48.658;2.328;2024-02-26T02:59:26;12.88;;;2.00;;
70549;SDS011;58101;48.658;2.328;2024-02-26T03:01:52;10.13;;;2.70;;
70549;SDS011;58101;48.658;2.328;2024-02-26T03:04:18;14.10;;;2.22;;
70549;SDS011;58101;48.658;2.328;2024-02-26T03:06:43;19.40;;;2.75;;
70549;SDS011;58101;48.658;2.328;2024-02-26T03:09:09;18.75;;;2.80;;
70549;SDS011;58101;48.658;2.328;2024-02-26T03:11:35;14.93;;;2.90;;
70549;SDS011;58101;48.658;2.328;2024-02-26T03:14:00;13.65;;;2.40;;
70549;SDS011;58101;48.658;2.328;2024-02-26T03:16:26;12.90;;;2.10;;
70549;SDS011;58101;48.658;2.328;2024-02-26T03:18:52;15.80;;;2.38;;
70549;SDS011;58101;48.658;2.328;2024-02-26T03:21:17;19.30;;;3.00;;
70549;SDS011;58101;48.658;2.328;2024-02-26T03:23:43;17.08;;;3.17;;
70549;SDS011;58101;48.658;2.328;2024-02-26T03:26:09;11.23;;;2.30;;
70549;SDS011;58101;48.658;2.328;2024-02-26T03:28:38;17.55;;;2.60;;
70549;SDS011;58101;48.658;2.328;2024-02-26T03:31:04;14.77;;;3.03;;
70549;SDS011;58101;48.658;2.328;2024-02-26T03:33:29;18.10;;;3.40;;
70549;SDS011;58101;48.658;2.328;2024-02-26T03:35:55;25.42;;;3.42;;
70549;SDS011;58101;48.658;2.328;2024-02-26T03:38:21;16.08;;;2.90;;
70549;SDS011;58101;48.658;2.328;2024-02-26T03:40:47;17.50;;;2.80;;
70549;SDS011;58101;48.658;2.328;2024-02-26T03:43:12;14.65;;;2.17;;
70549;SDS011;58101;48.658;2.328;2024-02-26T03:45:39;11.57;;;1.60;;
70549;SDS011;58101;48.658;2.328;2024-02-26T03:48:04;11.52;;;2.10;;
70549;SDS011;58101;48.658;2.328;2024-02-26T03:50:30;13.73;;;1.83;;
70549;SDS011;58101;48.658;2.328;2024-02-26T03:52:57;10.65;;;1.90;;
70549;SDS011;58101;48.658;2.328;2024-02-26T03:55:22;14.38;;;1.88;;
70549;SDS011;58101;48.658;2.328;2024-02-26T04:00:16;12.00;;;1.85;;
70549;SDS011;58101;48.658;2.328;2024-02-26T04:02:41;13.23;;;1.83;;
70549;SDS011;58101;48.658;2.328;2024-02-26T04:05:10;9.25;;;1.38;;
70549;SDS011;58101;48.658;2.328;2024-02-26T04:07:36;20.05;;;3.15;;
70549;SDS011;58101;48.658;2.328;2024-02-26T04:10:02;12.63;;;2.08;;
70549;SDS011;58101;48.658;2.328;2024-02-26T04:12:31;14.10;;;1.70;;
70549;SDS011;58101;48.658;2.328;2024-02-26T04:14:56;12.07;;;1.95;;
70549;SDS011;58101;48.658;2.328;2024-02-26T04:17:22;27.40;;;5.93;;
70549;SDS011;58101;48.658;2.328;2024-02-26T04:19:47;15.43;;;3.17;;
70549;SDS011;58101;48.658;2.328;2024-02-26T04:22:13;15.55;;;3.05;;
70549;SDS011;58101;48.658;2.328;2024-02-26T04:24:39;20.73;;;4.40;;
70549;SDS011;58101;48.658;2.328;2024-02-26T04:27:04;19.05;;;4.55;;
70549;SDS011;58101;48.658;2.328;2024-02-26T04:29:30;24.65;;;6.15;;
70549;SDS011;58101;48.658;2.328;2024-02-26T04:31:55;15.82;;;3.58;;
70549;SDS011;58101;48.658;2.328;2024-02-26T04:34:21;17.33;;;3.58;;
70549;SDS011;58101;48.658;2.328;2024-02-26T04:36:46;18.05;;;2.30;;
70549;SDS011;58101;48.658;2.328;2024-02-26T04:39:13;15.73;;;2.60;;
70549;SDS011;58101;48.658;2.328;2024-02-26T04:41:38;23.13;;;4.60;;
70549;SDS011;58101;48.658;2.328;2024-02-26T04:44:04;21.95;;;5.32;;
70549;SDS011;58101;48.658;2.328;2024-02-26T04:46:30;20.45;;;3.72;;
70549;SDS011;58101;48.658;2.328;2024-02-26T04:48:56;11.93;;;1.98;;
70549;SDS011;58101;48.658;2.328;2024-02-26T04:51:21;14.50;;;2.00;;
70549;SDS011;58101;48.658;2.328;2024-02-26T04:53:47;12.93;;;1.90;;
70549;SDS011;58101;48.658;2.328;2024-02-26T04:56:12;13.65;;;1.67;;
70549;SDS011;58101;48.658;2.328;2024-02-26T04:58:38;13.20;;;2.22;;
70549;SDS011;58101;48.658;2.328;2024-02-26T05:01:04;16.15;;;1.95;;
70549;SDS011;58101;48.658;2.328;2024-02-26T05:03:30;16.15;;;2.50;;
70549;SDS011;58101;48.658;2.328;2024-02-26T05:05:56;9.63;;;1.73;;
70549;SDS011;58101;48.658;2.328;2024-02-26T05:08:23;11.60;;;1.60;;
70549;SDS011;58101;48.658;2.328;2024-02-26T05:10:48;12.65;;;1.95;;
70549;SDS011;58101;48.658;2.328;2024-02-26T05:13:14;16.33;;;1.67;;
70549;SDS011;58101;48.658;2.328;2024-02-26T05:15:42;12.85;;;1.90;;
70549;SDS011;58101;48.658;2.328;2024-02-26T05:18:08;13.73;;;2.15;;
70549;SDS011;58101;48.658;2.328;2024-02-26T05:20:34;12.15;;;1.65;;
70549;SDS011;58101;48.658;2.328;2024-02-26T05:23:01;7.88;;;1.88;;
70549;SDS011;58101;48.658;2.328;2024-02-26T05:25:26;11.23;;;1.88;;
70549;SDS011;58101;48.658;2.328;2024-02-26T05:27:52;17.02;;;2.00;;
70549;SDS011;58101;48.658;2.328;2024-02-26T05:30:18;11.23;;;2.10;;
70549;SDS011;58101;48.658;2.328;2024-02-26T05:32:43;13.57;;;2.25;;
70549;SDS011;58101;48.658;2.328;2024-02-26T05:35:09;15.80;;;2.25;;
70549;SDS011;58101;48.658;2.328;2024-02-26T05:37:34;10.30;;;1.90;;
70549;SDS011;58101;48.658;2.328;2024-02-26T05:40:00;12.40;;;2.13;;
70549;SDS011;58101;48.658;2.328;2024-02-26T05:42:26;12.52;;;2.20;;
70549;SDS011;58101;48.658;2.328;2024-02-26T05:44:51;12.25;;;3.13;;
70549;SDS011;58101;48.658;2.328;2024-02-26T05:47:17;18.50;;;5.43;;
70549;SDS011;58101;48.658;2.328;2024-02-26T05:49:43;26.27;;;6.22;;
70549;SDS011;58101;48.658;2.328;2024-02-26T05:52:08;36.83;;;12.60;;
70549;SDS011;58101;48.658;2.328;2024-02-26T05:54:34;48.67;;;16.70;;
70549;SDS011;58101;48.658;2.328;2024-02-26T05:57:00;31.30;;;12.27;;
70549;SDS011;58101;48.658;2.328;2024-02-26T05:59:26;29.38;;;13.63;;
70549;SDS011;58101;48.658;2.328;2024-02-26T06:01:52;25.10;;;11.88;;
70549;SDS011;58101;48.658;2.328;2024-02-26T06:04:17;21.98;;;7.50;;
70549;SDS011;58101;48.658;2.328;2024-02-26T06:06:46;13.98;;;3.67;;
70549;SDS011;58101;48.658;2.328;2024-02-26T06:09:11;15.73;;;3.67;;
70549;SDS011;58101;48.658;2.328;2024-02-26T06:11:37;14.30;;;2.97;;
70549;SDS011;58101;48.658;2.328;2024-02-26T06:14:03;15.75;;;3.13;;
70549;SDS011;58101;48.658;2.328;2024-02-26T06:16:29;16.75;;;3.08;;
70549;SDS011;58101;48.658;2.328;2024-02-26T06:18:54;21.33;;;4.68;;
70549;SDS011;58101;48.658;2.328;2024-02-26T06:21:21;19.63;;;4.50;;
70549;SDS011;58101;48.658;2.328;2024-02-26T06:23:47;22.45;;;4.70;;
70549;SDS011;58101;48.658;2.328;2024-02-26T06:26:12;20.58;;;4.13;;
70549;SDS011;58101;48.658;2.328;2024-02-26T06:28:38;21.38;;;4.35;;
70549;SDS011;58101;48.658;2.328;2024-02-26T06:31:05;16.65;;;3.90;;
70549;SDS011;58101;48.658;2.328;2024-02-26T06:33:31;16.02;;;3.35;;
70549;SDS011;58101;48.658;2.328;2024-02-26T06:35:57;15.32;;;3.25;;
70549;SDS011;58101;48.658;2.328;2024-02-26T06:38:22;11.52;;;2.90;;
70549;SDS011;58101;48.658;2.328;2024-02-26T06:40:48;12.43;;;3.30;;
70549;SDS011;58101;48.658;2.328;2024-02-26T06:43:14;13.73;;;3.47;;
70549;SDS011;58101;48.658;2.328;2024-02-26T06:45:39;17.13;;;3.70;;
70549;SDS011;58101;48.658;2.328;2024-02-26T06:48:05;16.98;;;4.18;;
70549;SDS011;58101;48.658;2.328;2024-02-26T06:50:31;18.00;;;4.47;;
70549;SDS011;58101;48.658;2.328;2024-02-26T06:52:56;20.08;;;5.07;;
70549;SDS011;58101;48.658;2.328;2024-02-26T06:55:22;24.27;;;4.60;;
70549;SDS011;58101;48.658;2.328;2024-02-26T06:57:48;18.80;;;4.25;;
70549;SDS011;58101;48.658;2.328;2024-02-26T07:00:13;16.52;;;3.92;;
70549;SDS011;58101;48.658;2.328;2024-02-26T07:02:41;24.67;;;6.40;;
70549;SDS011;58101;48.658;2.328;2024-02-26T07:05:07;19.60;;;5.90;;
70549;SDS011;58101;48.658;2.328;2024-02-26T07:07:33;19.67;;;5.90;;
70549;SDS011;58101;48.658;2.328;2024-02-26T07:09:59;26.20;;;6.15;;
70549;SDS011;58101;48.658;2.328;2024-02-26T07:12:25;15.55;;;3.83;;
70549;SDS011;58101;48.658;2.328;2024-02-26T07:14:51;19.80;;;4.00;;
70549;SDS011;58101;48.658;2.328;2024-02-26T07:17:17;16.65;;;4.07;;
70549;SDS011;58101;48.658;2.328;2024-02-26T07:19:42;14.10;;;3.75;;
70549;SDS011;58101;48.658;2.328;2024-02-26T07:22:08;16.48;;;3.53;;
70549;SDS011;58101;48.658;2.328;2024-02-26T07:24:34;21.70;;;4.50;;
70549;SDS011;58101;48.658;2.328;2024-02-26T07:26:59;26.80;;;4.10;;
70549;SDS011;58101;48.658;2.328;2024-02-26T07:29:25;18.10;;;4.25;;
70549;SDS011;58101;48.658;2.328;2024-02-26T07:31:50;18.27;;;4.30;;
70549;SDS011;58101;48.658;2.328;2024-02-26T07:34:16;24.60;;;4.50;;
70549;SDS011;58101;48.658;2.328;2024-02-26T07:36:42;17.20;;;3.78;;
70549;SDS011;58101;48.658;2.328;2024-02-26T07:39:07;18.05;;;3.95;;
70549;SDS011;58101;48.658;2.328;2024-02-26T07:41:33;16.75;;;3.78;;
70549;SDS011;58101;48.658;2.328;2024-02-26T07:43:59;17.45;;;4.00;;
70549;SDS011;58101;48.658;2.328;2024-02-26T07:46:24;16.95;;;5.13;;
70549;SDS011;58101;48.658;2.328;2024-02-26T07:48:50;20.17;;;3.90;;
70549;SDS011;58101;48.658;2.328;2024-02-26T07:51:16;20.63;;;3.90;;
70549;SDS011;58101;48.658;2.328;2024-02-26T07:53:42;19.05;;;4.22;;
70549;SDS011;58101;48.658;2.328;2024-02-26T07:56:08;17.35;;;3.70;;
70549;SDS011;58101;48.658;2.328;2024-02-26T07:58:34;15.45;;;3.35;;
70549;SDS011;58101;48.658;2.328;2024-02-26T08:01:00;15.82;;;3.40;;
70549;SDS011;58101;48.658;2.328;2024-02-26T08:03:26;11.82;;;3.30;;
70549;SDS011;58101;48.658;2.328;2024-02-26T08:05:51;14.90;;;3.75;;
70549;SDS011;58101;48.658;2.328;2024-02-26T08:08:17;17.80;;;3.45;;
70549;SDS011;58101;48.658;2.328;2024-02-26T08:10:43;12.30;;;3.10;;
70549;SDS011;58101;48.658;2.328;2024-02-26T08:13:08;17.05;;;3.88;;
70549;SDS011;58101;48.658;2.328;2024-02-26T08:15:35;14.77;;;3.65;;
70549;SDS011;58101;48.658;2.328;2024-02-26T08:18:02;18.42;;;4.10;;
70549;SDS011;58101;48.658;2.328;2024-02-26T08:20:28;22.63;;;4.20;;
70549;SDS011;58101;48.658;2.328;2024-02-26T08:22:54;16.75;;;3.60;;
70549;SDS011;58101;48.658;2.328;2024-02-26T08:25:20;17.17;;;3.85;;
70549;SDS011;58101;48.658;2.328;2024-02-26T08:27:46;15.65;;;3.80;;
70549;SDS011;58101;48.658;2.328;2024-02-26T08:30:12;15.90;;;4.22;;
70549;SDS011;58101;48.658;2.328;2024-02-26T08:32:41;13.75;;;3.50;;
70549;SDS011;58101;48.658;2.328;2024-02-26T08:35:10;21.85;;;4.65;;
70549;SDS011;58101;48.658;2.328;2024-02-26T08:37:36;14.02;;;4.03;;
70549;SDS011;58101;48.658;2.328;2024-02-26T08:40:01;16.85;;;4.53;;
70549;SDS011;58101;48.658;2.328;2024-02-26T08:44:54;25.52;;;7.13;;
70549;SDS011;58101;48.658;2.328;2024-02-26T08:47:20;24.52;;;8.35;;
70549;SDS011;58101;48.658;2.328;2024-02-26T08:49:45;19.75;;;5.70;;
70549;SDS011;58101;48.658;2.328;2024-02-26T08:52:11;21.25;;;7.57;;
70549;SDS011;58101;48.658;2.328;2024-02-26T08:54:37;20.80;;;6.95;;
70549;SDS011;58101;48.658;2.328;2024-02-26T08:57:03;15.40;;;5.50;;
70549;SDS011;58101;48.658;2.328;2024-02-26T08:59:29;16.48;;;6.13;;
70549;SDS011;58101;48.658;2.328;2024-02-26T09:01:54;16.92;;;5.45;;
70549;SDS011;58101;48.658;2.328;2024-02-26T09:04:20;14.40;;;5.63;;
70549;SDS011;58101;48.658;2.328;2024-02-26T09:06:46;12.63;;;3.20;;
70549;SDS011;58101;48.658;2.328;2024-02-26T09:09:12;13.50;;;3.22;;
70549;SDS011;58101;48.658;2.328;2024-02-26T09:11:37;12.75;;;4.30;;
70549;SDS011;58101;48.658;2.328;2024-02-26T09:14:03;10.07;;;2.85;;
70549;SDS011;58101;48.658;2.328;2024-02-26T09:16:29;13.63;;;3.33;;
70549;SDS011;58101;48.658;2.328;2024-02-26T09:18:55;13.05;;;2.20;;
70549;SDS011;58101;48.658;2.328;2024-02-26T09:21:21;11.25;;;2.40;;
70549;SDS011;58101;48.658;2.328;2024-02-26T09:23:48;12.15;;;3.50;;
70549;SDS011;58101;48.658;2.328;2024-02-26T09:26:14;8.18;;;2.00;;
70549;SDS011;58101;48.658;2.328;2024-02-26T09:28:40;10.63;;;3.00;;
70549;SDS011;58101;48.658;2.328;2024-02-26T09:31:06;13.07;;;4.07;;
70549;SDS011;58101;48.658;2.328;2024-02-26T09:33:32;10.10;;;3.00;;
70549;SDS011;58101;48.658;2.328;2024-02-26T09:35:58;7.13;;;1.70;;
70549;SDS011;58101;48.658;2.328;2024-02-26T09:38:24;11.00;;;3.80;;
70549;SDS011;58101;48.658;2.328;2024-02-26T09:40:49;9.55;;;2.17;;
70549;SDS011;58101;48.658;2.328;2024-02-26T09:43:15;10.65;;;2.22;;
70549;SDS011;58101;48.658;2.328;2024-02-26T09:45:46;10.73;;;3.30;;
70549;SDS011;58101;48.658;2.328;2024-02-26T09:48:12;9.40;;;1.80;;
70549;SDS011;58101;48.658;2.328;2024-02-26T09:50:40;6.22;;;1.60;;
70549;SDS011;58101;48.658;2.328;2024-02-26T09:53:08;6.53;;;1.50;;
70549;SDS011;58101;48.658;2.328;2024-02-26T09:55:35;7.70;;;1.42;;
70549;SDS011;58101;48.658;2.328;2024-02-26T09:58:01;10.38;;;1.70;;
70549;SDS011;58101;48.658;2.328;2024-02-26T10:00:28;6.60;;;1.30;;
70549;SDS011;58101;48.658;2.328;2024-02-26T10:03:01;7.78;;;1.55;;
70549;SDS011;58101;48.658;2.328;2024-02-26T10:05:30;5.93;;;1.30;;
70549;SDS011;58101;48.658;2.328;2024-02-26T10:07:58;6.50;;;1.38;;
70549;SDS011;58101;48.658;2.328;2024-02-26T10:10:26;8.25;;;1.90;;
70549;SDS011;58101;48.658;2.328;2024-02-26T10:12:54;12.07;;;2.08;;
70549;SDS011;58101;48.658;2.328;2024-02-26T10:15:20;7.60;;;2.20;;
70549;SDS011;58101;48.658;2.328;2024-02-26T10:17:45;9.50;;;2.40;;
70549;SDS011;58101;48.658;2.328;2024-02-26T10:22:41;7.07;;;1.90;;
70549;SDS011;58101;48.658;2.328;2024-02-26T10:25:07;7.57;;;1.80;;
70549;SDS011;58101;48.658;2.328;2024-02-26T10:27:33;6.70;;;2.10;;
70549;SDS011;58101;48.658;2.328;2024-02-26T10:30:03;8.57;;;2.03;;
70549;SDS011;58101;48.658;2.328;2024-02-26T10:32:30;9.45;;;2.53;;
70549;SDS011;58101;48.658;2.328;2024-02-26T10:34:57;7.82;;;2.55;;
70549;SDS011;58101;48.658;2.328;2024-02-26T10:37:22;8.02;;;2.10;;
70549;SDS011;58101;48.658;2.328;2024-02-26T10:39:50;7.90;;;1.90;;
70549;SDS011;58101;48.658;2.328;2024-02-26T10:42:15;8.55;;;2.10;;
70549;SDS011;58101;48.658;2.328;2024-02-26T10:44:44;8.50;;;2.17;;
70549;SDS011;58101;48.658;2.328;2024-02-26T10:47:13;7.43;;;1.90;;
70549;SDS011;58101;48.658;2.328;2024-02-26T10:49:44;6.32;;;1.90;;
70549;SDS011;58101;48.658;2.328;2024-02-26T10:52:13;8.68;;;2.10;;
70549;SDS011;58101;48.658;2.328;2024-02-26T10:59:33;6.68;;;1.90;;
70549;SDS011;58101;48.658;2.328;2024-02-26T11:02:01;6.65;;;1.75;;
70549;SDS011;58101;48.658;2.328;2024-02-26T11:04:28;7.95;;;1.70;;
70549;SDS011;58101;48.658;2.328;2024-02-26T11:06:55;8.68;;;2.20;;
70549;SDS011;58101;48.658;2.328;2024-02-26T11:09:22;7.05;;;1.92;;
70549;SDS011;58101;48.658;2.328;2024-02-26T11:11:49;8.35;;;2.45;;
70549;SDS011;58101;48.658;2.328;2024-02-26T11:14:19;9.65;;;2.30;;
70549;SDS011;58101;48.658;2.328;2024-02-26T11:16:46;7.78;;;2.47;;
70549;SDS011;58101;48.658;2.328;2024-02-26T11:19:14;9.93;;;2.63;;
70549;SDS011;58101;48.658;2.328;2024-02-26T11:21:41;7.97;;;2.20;;
70549;SDS011;58101;48.658;2.328;2024-02-26T11:24:15;7.68;;;1.85;;
70549;SDS011;58101;48.658;2.328;2024-02-26T11:26:46;8.38;;;1.83;;
70549;SDS011;58101;48.658;2.328;2024-02-26T11:29:39;6.97;;;2.00;;
70549;SDS011;58101;48.658;2.328;2024-02-26T11:37:16;9.07;;;1.70;;
70549;SDS011;58101;48.658;2.328;2024-02-26T11:39:42;7.30;;;1.70;;
70549;SDS011;58101;48.658;2.328;2024-02-26T11:42:10;5.20;;;1.30;;
70549;SDS011;58101;48.658;2.328;2024-02-26T11:44:39;7.65;;;1.27;;
70549;SDS011;58101;48.658;2.328;2024-02-26T11:47:13;9.43;;;2.22;;
70549;SDS011;58101;48.658;2.328;2024-02-26T11:49:42;7.43;;;1.55;;
70549;SDS011;58101;48.658;2.328;2024-02-26T11:52:08;5.78;;;1.63;;
70549;SDS011;58101;48.658;2.328;2024-02-26T11:54:45;6.95;;;1.60;;
70549;SDS011;58101;48.658;2.328;2024-02-26T11:57:24;7.20;;;1.60;;
70549;SDS011;58101;48.658;2.328;2024-02-26T11:59:51;6.25;;;1.83;;
70549;SDS011;58101;48.658;2.328;2024-02-26T12:05:18;6.40;;;1.58;;
70549;SDS011;58101;48.658;2.328;2024-02-26T12:07:49;7.18;;;1.70;;
70549;SDS011;58101;48.658;2.328;2024-02-26T12:10:27;7.28;;;1.83;;
70549;SDS011;58101;48.658;2.328;2024-02-26T12:13:03;6.63;;;1.77;;
70549;SDS011;58101;48.658;2.328;2024-02-26T12:18:08;7.20;;;1.80;;
70549;SDS011;58101;48.658;2.328;2024-02-26T12:20:35;7.32;;;1.98;;
70549;SDS011;58101;48.658;2.328;2024-02-26T12:23:05;8.70;;;2.50;;
70549;SDS011;58101;48.658;2.328;2024-02-26T12:25:31;6.32;;;1.63;;
70549;SDS011;58101;48.658;2.328;2024-02-26T12:30:23;7.60;;;1.83;;
70549;SDS011;58101;48.658;2.328;2024-02-26T12:32:54;8.93;;;2.00;;
70549;SDS011;58101;48.658;2.328;2024-02-26T12:35:22;7.55;;;2.40;;
70549;SDS011;58101;48.658;2.328;2024-02-26T12:37:49;9.68;;;2.20;;
70549;SDS011;58101;48.658;2.328;2024-02-26T12:40:16;6.38;;;1.77;;
70549;SDS011;58101;48.658;2.328;2024-02-26T12:42:43;7.93;;;1.80;;
70549;SDS011;58101;48.658;2.328;2024-02-26T12:45:09;6.88;;;1.80;;
70549;SDS011;58101;48.658;2.328;2024-02-26T12:47:39;7.90;;;1.83;;
70549;SDS011;58101;48.658;2.328;2024-02-26T12:50:06;7.55;;;1.60;;
70549;SDS011;58101;48.658;2.328;2024-02-26T12:52:33;6.30;;;1.70;;
70549;SDS011;58101;48.658;2.328;2024-02-26T12:55:01;6.00;;;1.90;;
70549;SDS011;58101;48.658;2.328;2024-02-26T12:57:34;6.55;;;2.10;;
70549;SDS011;58101;48.658;2.328;2024-02-26T13:00:06;6.38;;;1.60;;
70549;SDS011;58101;48.658;2.328;2024-02-26T13:05:03;7.20;;;2.10;;
70549;SDS011;58101;48.658;2.328;2024-02-26T13:07:30;6.18;;;1.70;;
70549;SDS011;58101;48.658;2.328;2024-02-26T13:09:56;6.57;;;1.63;;
70549;SDS011;58101;48.658;2.328;2024-02-26T13:12:21;8.95;;;1.88;;
70549;SDS011;58101;48.658;2.328;2024-02-26T13:14:48;6.70;;;1.83;;
70549;SDS011;58101;48.658;2.328;2024-02-26T13:17:24;11.85;;;2.10;;
70549;SDS011;58101;48.658;2.328;2024-02-26T13:19:52;6.22;;;2.25;;
70549;SDS011;58101;48.658;2.328;2024-02-26T13:22:20;5.35;;;1.90;;
70549;SDS011;58101;48.658;2.328;2024-02-26T13:24:53;9.23;;;2.92;;
70549;SDS011;58101;48.658;2.328;2024-02-26T13:27:22;6.22;;;2.05;;
70549;SDS011;58101;48.658;2.328;2024-02-26T13:29:48;6.13;;;1.77;;
70549;SDS011;58101;48.658;2.328;2024-02-26T13:32:14;5.30;;;1.60;;
70549;SDS011;58101;48.658;2.328;2024-02-26T13:34:39;5.45;;;1.63;;
70549;SDS011;58101;48.658;2.328;2024-02-26T13:37:05;5.15;;;1.42;;
70549;SDS011;58101;48.658;2.328;2024-02-26T13:39:31;4.93;;;1.48;;
70549;SDS011;58101;48.658;2.328;2024-02-26T13:41:56;5.68;;;1.45;;
70549;SDS011;58101;48.658;2.328;2024-02-26T13:44:23;4.72;;;1.48;;
70549;SDS011;58101;48.658;2.328;2024-02-26T13:46:49;5.70;;;1.70;;
70549;SDS011;58101;48.658;2.328;2024-02-26T13:49:15;5.55;;;1.80;;
70549;SDS011;58101;48.658;2.328;2024-02-26T13:51:41;7.25;;;1.60;;
70549;SDS011;58101;48.658;2.328;2024-02-26T13:54:07;7.28;;;1.70;;
70549;SDS011;58101;48.658;2.328;2024-02-26T13:56:32;6.75;;;1.73;;
70549;SDS011;58101;48.658;2.328;2024-02-26T13:58:58;5.20;;;1.50;;
70549;SDS011;58101;48.658;2.328;2024-02-26T14:01:25;5.82;;;1.50;;
70549;SDS011;58101;48.658;2.328;2024-02-26T14:03:51;6.78;;;1.83;;
70549;SDS011;58101;48.658;2.328;2024-02-26T14:06:20;6.25;;;2.10;;
70549;SDS011;58101;48.658;2.328;2024-02-26T14:08:45;5.22;;;1.60;;
70549;SDS011;58101;48.658;2.328;2024-02-26T14:11:11;5.93;;;1.42;;
70549;SDS011;58101;48.658;2.328;2024-02-26T14:13:36;5.30;;;1.42;;
70549;SDS011;58101;48.658;2.328;2024-02-26T14:16:02;5.00;;;1.50;;
70549;SDS011;58101;48.658;2.328;2024-02-26T14:18:28;4.47;;;1.23;;
70549;SDS011;58101;48.658;2.328;2024-02-26T14:20:53;4.90;;;1.40;;
70549;SDS011;58101;48.658;2.328;2024-02-26T14:23:19;6.10;;;1.60;;
70549;SDS011;58101;48.658;2.328;2024-02-26T14:25:44;5.75;;;1.75;;
70549;SDS011;58101;48.658;2.328;2024-02-26T14:28:10;6.53;;;1.80;;
70549;SDS011;58101;48.658;2.328;2024-02-26T14:30:36;6.13;;;2.00;;
70549;SDS011;58101;48.658;2.328;2024-02-26T14:33:02;5.45;;;1.83;;
70549;SDS011;58101;48.658;2.328;2024-02-26T14:35:27;6.03;;;1.77;;
70549;SDS011;58101;48.658;2.328;2024-02-26T14:37:53;5.60;;;1.58;;
70549;SDS011;58101;48.658;2.328;2024-02-26T14:40:20;5.30;;;1.60;;
70549;SDS011;58101;48.658;2.328;2024-02-26T14:42:45;6.13;;;1.60;;
70549;SDS011;58101;48.658;2.328;2024-02-26T14:45:11;9.68;;;3.03;;
70549;SDS011;58101;48.658;2.328;2024-02-26T14:47:37;6.85;;;2.00;;
70549;SDS011;58101;48.658;2.328;2024-02-26T14:50:03;10.07;;;3.30;;
70549;SDS011;58101;48.658;2.328;2024-02-26T14:52:29;5.63;;;1.73;;
70549;SDS011;58101;48.658;2.328;2024-02-26T14:54:54;8.18;;;1.92;;
70549;SDS011;58101;48.658;2.328;2024-02-26T14:57:20;7.07;;;2.28;;
70549;SDS011;58101;48.658;2.328;2024-02-26T14:59:46;12.27;;;3.65;;
70549;SDS011;58101;48.658;2.328;2024-02-26T15:02:12;10.15;;;2.95;;
70549;SDS011;58101;48.658;2.328;2024-02-26T15:04:38;9.07;;;2.85;;